createdAt,value
2024-01-14T00:08:45.843Z,63.18
2024-01-14T00:23:47.805Z,61.41
2024-01-14T00:38:49.930Z,62.80
2024-01-14T00:53:52.090Z,58.69
2024-01-14T01:08:54.032Z,58.75
2024-01-14T01:23:56.180Z,58.76
2024-01-14T01:38:58.259Z,57.79
2024-01-14T01:54:00.337Z,58.44
2024-01-14T02:09:02.378Z,57.43
2024-01-14T02:24:35.326Z,60.94
2024-01-14T02:39:37.276Z,59.44
2024-01-14T02:54:39.254Z,59.34
2024-01-14T03:09:41.325Z,57.84
2024-01-14T03:24:43.486Z,58.66
2024-01-14T03:39:45.460Z,60.87
2024-01-14T03:54:47.373Z,60.30
2024-01-14T04:09:49.261Z,59.99
2024-01-14T04:24:51.174Z,60.97
2024-01-14T04:39:55.042Z,58.33
2024-01-14T04:54:56.949Z,59.45
2024-01-14T05:09:59.067Z,58.41
2024-01-14T05:25:01.074Z,58.51
2024-01-14T05:40:03.283Z,59.28
2024-01-14T05:55:05.974Z,58.81
2024-01-14T06:10:09.746Z,59.10
2024-01-14T06:25:11.701Z,59.30
2024-01-14T06:40:18.413Z,53.90
2024-01-14T06:55:23.477Z,49.83
2024-01-14T07:10:25.382Z,46.94
2024-01-14T07:25:27.672Z,49.44
2024-01-14T07:40:29.581Z,46.41
2024-01-14T07:55:31.879Z,43.74
2024-01-14T08:10:34.589Z,42.70
2024-01-14T08:25:36.625Z,43.97
2024-01-14T08:40:38.684Z,42.70
2024-01-14T08:55:40.612Z,40.25
2024-01-14T09:10:42.579Z,39.54
2024-01-14T09:25:44.517Z,38.67
2024-01-14T09:40:52.633Z,40.19
2024-01-14T09:55:55.444Z,38.40
2024-01-14T10:10:58.592Z,39.45
2024-01-14T10:26:04.135Z,40.15
2024-01-14T10:41:06.314Z,40.33
2024-01-14T10:56:16.828Z,42.63
2024-01-14T11:11:25.253Z,42.13
2024-01-14T11:26:29.470Z,44.25
2024-01-14T11:41:32.655Z,42.77
2024-01-14T11:56:37.500Z,43.39
2024-01-14T12:11:40.301Z,44.19
2024-01-14T12:26:48.250Z,43.96
2024-01-14T12:41:54.558Z,44.72
2024-01-14T12:57:16.284Z,44.65
2024-01-14T13:12:22.576Z,44.63
2024-01-14T13:27:25.100Z,45.57
2024-01-14T13:42:27.442Z,46.66
2024-01-14T13:57:29.539Z,46.44
2024-01-14T14:12:31.588Z,48.31
2024-01-14T14:27:33.729Z,46.39
2024-01-14T14:42:35.721Z,45.75
2024-01-14T14:57:37.718Z,46.99
2024-01-14T15:12:39.649Z,49.20
2024-01-14T15:27:42.128Z,49.18
2024-01-14T15:42:44.180Z,50.23
2024-01-14T15:57:46.341Z,53.33
2024-01-14T16:12:48.495Z,51.60
2024-01-14T16:27:50.402Z,49.22
2024-01-14T16:42:53.090Z,49.32
2024-01-14T16:57:55.664Z,48.97
2024-01-14T17:12:58.483Z,52.93
2024-01-14T17:28:01.505Z,54.46
2024-01-14T17:43:03.581Z,54.96
2024-01-14T17:58:05.894Z,55.99
2024-01-14T18:13:13.093Z,55.62
2024-01-14T18:28:16.497Z,55.80
2024-01-14T18:43:19.568Z,56.44
2024-01-14T18:58:24.497Z,57.15
2024-01-14T19:13:26.533Z,58.82
2024-01-14T19:28:28.649Z,57.45
2024-01-14T19:43:31.559Z,57.68
2024-01-14T19:58:33.404Z,58.90
2024-01-14T20:13:35.306Z,58.10
2024-01-14T20:28:37.240Z,58.22
2024-01-14T20:43:39.186Z,58.72
2024-01-14T20:58:41.117Z,58.13
2024-01-14T21:13:43.167Z,58.86
2024-01-14T21:28:45.133Z,57.55
2024-01-14T21:43:47.017Z,57.04
2024-01-14T21:58:49.711Z,57.56
2024-01-14T22:13:51.776Z,58.85
2024-01-14T22:28:57.254Z,56.54
2024-01-14T22:44:01.345Z,57.23
2024-01-14T22:59:03.975Z,56.89
2024-01-14T23:14:05.965Z,57.90
2024-01-14T23:29:08.018Z,57.64
2024-01-14T23:44:11.542Z,59.24
2024-01-14T23:59:13.547Z,58.25
